createdAt,value
2018-12-02T00:00:59.273Z,9.24
2018-12-02T00:01:59.233Z,9.31
2018-12-02T00:02:59.249Z,9.24
2018-12-02T00:03:59.207Z,9.26
2018-12-02T00:04:59.202Z,9.32
2018-12-02T00:05:59.242Z,9.38
2018-12-02T00:06:59.176Z,9.32
2018-12-02T00:07:59.185Z,9.24
2018-12-02T00:08:59.172Z,9.24
2018-12-02T00:09:59.149Z,9.27
2018-12-02T00:10:59.187Z,9.24
2018-12-02T00:11:59.159Z,9.26
2018-12-02T00:12:59.111Z,9.30
2018-12-02T00:13:59.139Z,9.23
2018-12-02T00:14:59.096Z,9.31
2018-12-02T00:15:59.090Z,9.42
2018-12-02T00:16:59.108Z,9.34
2018-12-02T00:17:59.083Z,9.26
2018-12-02T00:18:59.046Z,9.24
2018-12-02T00:19:59.063Z,9.26
2018-12-02T00:20:59.037Z,9.32
2018-12-02T00:21:59.061Z,9.26
2018-12-02T00:22:59.044Z,9.27
2018-12-02T00:23:58.990Z,9.31
2018-12-02T00:24:58.976Z,9.34
2018-12-02T00:25:58.965Z,9.27
2018-12-02T00:26:58.954Z,9.35
2018-12-02T00:27:59.051Z,9.34
2018-12-02T00:28:58.937Z,9.34
2018-12-02T00:29:58.926Z,9.37
2018-12-02T00:30:58.912Z,9.35
2018-12-02T00:31:58.903Z,9.38
2018-12-02T00:32:58.930Z,9.38
2018-12-02T00:33:58.878Z,9.37
2018-12-02T00:34:58.881Z,9.38
2018-12-02T00:35:58.858Z,9.40
2018-12-02T00:36:58.898Z,9.38
2018-12-02T00:37:58.865Z,9.34
2018-12-02T00:38:58.847Z,9.37
2018-12-02T00:39:58.828Z,9.48
2018-12-02T00:40:59.012Z,9.32
2018-12-02T00:41:58.793Z,9.48
2018-12-02T00:42:58.782Z,9.40
2018-12-02T00:43:58.798Z,9.45
2018-12-02T00:44:58.763Z,9.44
2018-12-02T00:45:58.751Z,9.50
2018-12-02T00:46:58.794Z,9.49
2018-12-02T00:47:58.726Z,9.45
2018-12-02T00:48:58.739Z,9.44
2018-12-02T00:49:58.704Z,9.50
2018-12-02T00:50:58.698Z,9.42
2018-12-02T00:51:58.682Z,9.45
2018-12-02T00:52:58.673Z,9.41
2018-12-02T00:53:58.684Z,9.45
2018-12-02T00:54:58.659Z,9.45
2018-12-02T00:55:58.646Z,9.42
2018-12-02T00:56:58.639Z,9.48
2018-12-02T00:57:58.633Z,9.42
2018-12-02T00:58:58.661Z,9.48
2018-12-02T00:59:58.607Z,9.44
2018-12-02T01:00:58.607Z,9.55
2018-12-02T01:01:58.572Z,9.50
2018-12-02T01:02:58.626Z,9.56
2018-12-02T01:03:58.577Z,9.44
2018-12-02T01:04:58.546Z,9.59
2018-12-02T01:05:58.572Z,9.52
2018-12-02T01:06:58.557Z,9.55
2018-12-02T01:07:58.513Z,9.48
2018-12-02T01:08:58.525Z,9.44
2018-12-02T01:09:58.570Z,9.53
2018-12-02T01:10:58.480Z,9.50
2018-12-02T01:11:58.471Z,9.60
2018-12-02T01:12:58.458Z,9.65
2018-12-02T01:13:58.446Z,9.62
2018-12-02T01:14:58.464Z,9.56
2018-12-02T01:15:58.489Z,9.65
2018-12-02T01:16:58.418Z,9.68
2018-12-02T01:17:58.402Z,9.56
2018-12-02T01:18:58.392Z,9.67
2018-12-02T01:19:58.408Z,9.52
2018-12-02T01:20:58.368Z,9.62
2018-12-02T01:21:58.401Z,9.65
2018-12-02T01:22:58.344Z,9.62
2018-12-02T01:23:58.348Z,9.67
2018-12-02T01:24:58.373Z,9.71
2018-12-02T01:25:58.355Z,9.71
2018-12-02T01:26:58.305Z,9.70
2018-12-02T01:27:58.293Z,9.68
2018-12-02T01:28:58.359Z,9.56
2018-12-02T01:29:58.277Z,9.62
2018-12-02T01:30:58.281Z,9.62
2018-12-02T01:31:58.271Z,9.53
2018-12-02T01:32:58.239Z,9.59
2018-12-02T01:33:58.228Z,9.68
2018-12-02T01:34:58.219Z,9.65
2018-12-02T01:35:58.231Z,9.56
2018-12-02T01:36:58.214Z,9.65
2018-12-02T01:37:58.197Z,9.65
2018-12-02T01:38:58.176Z,9.63
2018-12-02T01:39:58.204Z,9.63
2018-12-02T01:40:58.221Z,9.71
2018-12-02T01:41:58.146Z,9.71
2018-12-02T01:42:58.143Z,9.77
2018-12-02T01:43:58.134Z,9.70
2018-12-02T01:44:58.104Z,9.74
2018-12-02T01:45:58.159Z,9.71
2018-12-02T01:46:58.108Z,9.74
2018-12-02T01:47:58.141Z,9.77
2018-12-02T01:48:58.062Z,9.71
2018-12-02T01:49:58.056Z,9.75
2018-12-02T01:50:58.046Z,9.75
2018-12-02T01:51:58.083Z,9.75
2018-12-02T01:52:58.082Z,9.70
2018-12-02T01:53:58.045Z,9.78
2018-12-02T01:54:57.997Z,9.71
2018-12-02T01:55:57.991Z,9.73
2018-12-02T01:56:58.038Z,9.75
2018-12-02T01:57:58.027Z,9.77
2018-12-02T01:58:57.953Z,9.78
2018-12-02T01:59:57.947Z,9.78
2018-12-02T02:00:57.932Z,9.78
2018-12-02T02:01:57.920Z,9.80
2018-12-02T02:02:57.984Z,9.74
2018-12-02T02:03:57.898Z,9.75
2018-12-02T02:04:57.913Z,9.78
2018-12-02T02:05:57.876Z,9.71
2018-12-02T02:06:57.866Z,9.78
2018-12-02T02:07:57.896Z,9.75
2018-12-02T02:08:57.844Z,9.77
2018-12-02T02:09:57.846Z,9.75
2018-12-02T02:10:57.826Z,9.74
2018-12-02T02:11:57.809Z,9.80
2018-12-02T02:12:57.801Z,9.75
2018-12-02T02:13:57.834Z,9.78
2018-12-02T02:14:57.790Z,9.81
2018-12-02T02:15:57.777Z,9.86
2018-12-02T02:16:57.758Z,9.89
2018-12-02T02:17:57.876Z,9.81
2018-12-02T02:18:57.810Z,9.91
2018-12-02T02:19:57.727Z,9.86
2018-12-02T02:20:57.763Z,9.89
2018-12-02T02:21:57.710Z,9.78
2018-12-02T02:22:57.721Z,9.88
2018-12-02T02:23:57.758Z,9.89
2018-12-02T02:24:57.669Z,9.86
2018-12-02T02:25:57.658Z,9.81
2018-12-02T02:26:57.647Z,9.88
2018-12-02T02:27:57.638Z,9.81
2018-12-02T02:28:57.646Z,9.89
2018-12-02T02:29:57.646Z,9.80
2018-12-02T02:30:57.610Z,9.74
2018-12-02T02:31:57.596Z,9.83
2018-12-02T02:32:57.602Z,9.81
2018-12-02T02:33:57.573Z,9.74
2018-12-02T02:34:57.565Z,9.70
2018-12-02T02:35:57.582Z,9.67
2018-12-02T02:36:57.557Z,9.58
2018-12-02T02:37:57.585Z,9.55
2018-12-02T02:38:57.523Z,9.42
2018-12-02T02:39:57.508Z,9.44
2018-12-02T02:40:57.590Z,9.35
2018-12-02T02:41:57.488Z,9.40
2018-12-02T02:42:57.475Z,9.35
2018-12-02T02:43:57.465Z,9.34
2018-12-02T02:44:57.458Z,9.32
2018-12-02T02:45:57.518Z,9.26
2018-12-02T02:46:57.433Z,9.27
2018-12-02T02:47:57.420Z,9.20
2018-12-02T02:48:57.416Z,9.30
2018-12-02T02:49:57.399Z,9.24
2018-12-02T02:50:57.412Z,9.31
2018-12-02T02:51:57.416Z,9.23
2018-12-02T02:52:57.367Z,9.23
2018-12-02T02:53:57.355Z,9.20
2018-12-02T02:54:57.343Z,9.19
2018-12-02T02:55:57.359Z,9.16
2018-12-02T02:56:57.334Z,9.13
2018-12-02T02:57:57.342Z,9.16
2018-12-02T02:58:57.347Z,9.19
2018-12-02T02:59:57.291Z,9.12
2018-12-02T03:00:57.306Z,9.19
2018-12-02T03:01:57.267Z,9.13
2018-12-02T03:02:57.262Z,9.15
2018-12-02T03:03:57.247Z,9.10
2018-12-02T03:04:57.283Z,9.08
2018-12-02T03:05:57.271Z,9.04
2018-12-02T03:06:57.216Z,9.01
2018-12-02T03:07:57.206Z,8.98
2018-12-02T03:08:57.210Z,8.98
2018-12-02T03:09:57.184Z,8.98
2018-12-02T03:10:57.216Z,9.01
2018-12-02T03:11:57.201Z,8.91
2018-12-02T03:12:57.151Z,8.94
2018-12-02T03:13:57.160Z,8.93
2018-12-02T03:14:57.133Z,8.97
2018-12-02T03:15:57.120Z,8.89
2018-12-02T03:16:57.236Z,8.93
2018-12-02T03:17:57.128Z,8.91
2018-12-02T03:18:57.082Z,8.86
2018-12-02T03:19:58.981Z,8.88
2018-12-02T03:20:57.071Z,8.80
2018-12-02T03:21:57.054Z,8.86
2018-12-02T03:22:57.131Z,8.89
2018-12-02T03:23:57.033Z,8.82
2018-12-02T03:24:57.026Z,8.88
2018-12-02T03:25:57.095Z,8.76
2018-12-02T03:26:57.021Z,8.83
2018-12-02T03:27:57.549Z,8.78
2018-12-02T03:28:56.980Z,8.89
2018-12-02T03:29:56.966Z,8.71
2018-12-02T03:30:56.992Z,8.70
2018-12-02T03:31:57.035Z,8.71
2018-12-02T03:32:56.958Z,8.73
2018-12-02T03:33:56.942Z,8.71
2018-12-02T03:34:56.938Z,8.68
2018-12-02T03:35:56.904Z,8.67
2018-12-02T03:36:56.965Z,8.70
2018-12-02T03:37:56.945Z,8.75
2018-12-02T03:38:56.899Z,8.70
2018-12-02T03:39:56.903Z,8.70
2018-12-02T03:40:56.843Z,8.73
2018-12-02T03:41:56.949Z,8.71
2018-12-02T03:42:56.857Z,8.79
2018-12-02T03:43:56.823Z,8.76
2018-12-02T03:44:56.809Z,8.71
2018-12-02T03:45:56.814Z,8.73
2018-12-02T03:46:56.782Z,8.65
2018-12-02T03:47:56.766Z,8.70
2018-12-02T03:48:56.830Z,8.60
2018-12-02T03:49:56.753Z,8.75
2018-12-02T03:50:56.739Z,8.71
2018-12-02T03:51:56.733Z,8.71
2018-12-02T03:52:56.717Z,8.68
2018-12-02T03:53:56.726Z,8.67
2018-12-02T03:54:56.742Z,8.71
2018-12-02T03:55:56.682Z,8.73
2018-12-02T03:56:56.699Z,8.68
2018-12-02T03:57:56.666Z,8.73
2018-12-02T03:58:56.672Z,8.67
2018-12-02T03:59:56.642Z,8.70
2018-12-02T04:00:56.683Z,8.73
2018-12-02T04:01:56.616Z,8.67
2018-12-02T04:02:56.668Z,8.64
2018-12-02T04:03:56.616Z,8.73
2018-12-02T04:04:56.609Z,8.64
2018-12-02T04:05:56.572Z,8.67
2018-12-02T04:06:56.564Z,8.61
2018-12-02T04:07:56.555Z,8.65
2018-12-02T04:08:56.563Z,8.75
2018-12-02T04:09:56.587Z,8.71
2018-12-02T04:10:56.530Z,8.68
2018-12-02T04:11:56.511Z,8.68
2018-12-02T04:12:56.501Z,8.73
2018-12-02T04:13:56.519Z,8.68
2018-12-02T04:14:56.513Z,8.67
2018-12-02T04:15:56.462Z,8.65
2018-12-02T04:16:56.513Z,8.73
2018-12-02T04:17:56.466Z,8.75
2018-12-02T04:18:56.471Z,8.64
2018-12-02T04:19:56.745Z,8.71
2018-12-02T04:20:56.448Z,8.71
2018-12-02T04:21:56.397Z,8.76
2018-12-02T04:22:56.386Z,8.64
2018-12-02T04:23:56.390Z,8.75
2018-12-02T04:24:56.391Z,8.73
2018-12-02T04:25:56.357Z,8.73
2018-12-02T04:26:56.345Z,8.73
2018-12-02T04:27:56.359Z,8.73
2018-12-02T04:28:56.327Z,8.75
2018-12-02T04:29:56.318Z,8.71
2018-12-02T04:30:56.364Z,8.73
2018-12-02T04:31:56.296Z,8.71
2018-12-02T04:32:56.287Z,8.79
2018-12-02T04:33:56.278Z,8.83
2018-12-02T04:34:56.307Z,8.73
2018-12-02T04:35:56.269Z,8.70
2018-12-02T04:36:56.245Z,8.67
2018-12-02T04:37:56.242Z,8.73
2018-12-02T04:38:56.218Z,8.67
2018-12-02T04:39:56.293Z,8.73
2018-12-02T04:40:56.220Z,8.76
2018-12-02T04:41:56.213Z,8.75
2018-12-02T04:42:56.169Z,8.71
2018-12-02T04:43:56.181Z,8.71
2018-12-02T04:44:56.341Z,8.68
2018-12-02T04:45:56.169Z,8.68
2018-12-02T04:46:56.156Z,8.68
2018-12-02T04:47:56.140Z,8.71
2018-12-02T04:48:56.106Z,8.86
2018-12-02T04:49:56.096Z,8.79
2018-12-02T04:50:56.205Z,8.75
2018-12-02T04:51:56.175Z,8.71
2018-12-02T04:52:56.063Z,8.75
2018-12-02T04:53:56.050Z,8.86
2018-12-02T04:54:56.165Z,8.83
2018-12-02T04:55:56.107Z,8.73
2018-12-02T04:56:56.018Z,8.82
2018-12-02T04:57:56.021Z,8.78
2018-12-02T04:58:55.994Z,8.83
2018-12-02T04:59:56.070Z,8.73
2018-12-02T05:00:56.005Z,8.85
2018-12-02T05:01:55.962Z,8.78
2018-12-02T05:02:56.105Z,8.73
2018-12-02T05:03:56.135Z,8.86
2018-12-02T05:04:55.957Z,8.73
2018-12-02T05:05:55.989Z,8.82
2018-12-02T05:06:56.035Z,8.76
2018-12-02T05:07:55.952Z,8.76
2018-12-02T05:08:55.985Z,8.85
2018-12-02T05:09:55.898Z,8.83
2018-12-02T05:10:55.924Z,8.80
2018-12-02T05:11:55.875Z,8.78
2018-12-02T05:12:55.843Z,8.85
2018-12-02T05:13:55.831Z,8.83
2018-12-02T05:14:55.837Z,8.80
2018-12-02T05:15:55.810Z,8.82
2018-12-02T05:16:55.872Z,8.82
2018-12-02T05:17:55.816Z,8.89
2018-12-02T05:18:55.778Z,8.91
2018-12-02T05:19:55.766Z,8.86
2018-12-02T05:20:55.802Z,8.82
2018-12-02T05:21:55.745Z,8.80
2018-12-02T05:22:55.756Z,8.91
2018-12-02T05:23:55.723Z,8.83
2018-12-02T05:24:55.737Z,8.88
2018-12-02T05:25:55.721Z,8.86
2018-12-02T05:26:55.690Z,8.86
2018-12-02T05:27:55.708Z,8.86
2018-12-02T05:28:55.685Z,8.80
2018-12-02T05:29:55.669Z,8.83
2018-12-02T05:30:55.649Z,8.89
2018-12-02T05:31:55.686Z,8.83
2018-12-02T05:32:55.665Z,8.79
2018-12-02T05:33:55.623Z,8.86
2018-12-02T05:34:55.620Z,8.89
2018-12-02T05:35:55.602Z,8.83
2018-12-02T05:36:55.590Z,8.83
2018-12-02T05:37:55.570Z,8.82
2018-12-02T05:38:55.588Z,8.89
2018-12-02T05:39:55.553Z,8.88
2018-12-02T05:40:55.549Z,8.89
2018-12-02T05:41:55.540Z,8.89
2018-12-02T05:42:55.555Z,8.85
2018-12-02T05:43:55.551Z,8.83
2018-12-02T05:44:55.512Z,8.91
2018-12-02T05:45:55.484Z,8.93
2018-12-02T05:46:55.493Z,8.79
2018-12-02T05:47:55.462Z,8.83
2018-12-02T05:48:55.546Z,8.91
2018-12-02T05:49:55.441Z,8.91
2018-12-02T05:50:55.435Z,8.93
2018-12-02T05:51:55.444Z,8.89
2018-12-02T05:52:55.411Z,8.85
2018-12-02T05:53:55.427Z,8.83
2018-12-02T05:54:55.384Z,8.89
2018-12-02T05:55:55.381Z,8.93
2018-12-02T05:56:55.363Z,8.97
2018-12-02T05:57:55.408Z,8.82
2018-12-02T05:58:55.379Z,8.94
2018-12-02T05:59:55.332Z,8.94
2018-12-02T06:00:55.319Z,8.94
2018-12-02T06:01:55.320Z,8.91
2018-12-02T06:02:55.297Z,8.91
2018-12-02T06:03:55.287Z,8.89
2018-12-02T06:04:55.329Z,8.85
2018-12-02T06:05:55.281Z,9.01
2018-12-02T06:06:55.256Z,8.97
2018-12-02T06:07:55.244Z,8.96
2018-12-02T06:08:55.286Z,8.97
2018-12-02T06:09:55.261Z,8.97
2018-12-02T06:10:55.214Z,8.96
2018-12-02T06:11:55.200Z,8.97
2018-12-02T06:12:55.191Z,8.98
2018-12-02T06:13:55.180Z,8.98
2018-12-02T06:14:55.218Z,8.97
2018-12-02T06:15:55.319Z,8.96
2018-12-02T06:16:55.149Z,9.00
2018-12-02T06:17:55.137Z,9.03
2018-12-02T06:18:55.123Z,9.01
2018-12-02T06:19:55.118Z,9.03
2018-12-02T06:20:55.184Z,8.98
2018-12-02T06:21:55.092Z,8.96
2018-12-02T06:22:55.081Z,9.03
2018-12-02T06:23:55.071Z,9.01
2018-12-02T06:24:55.058Z,8.96
2018-12-02T06:25:55.086Z,9.00
2018-12-02T06:26:55.036Z,9.00
2018-12-02T06:27:55.085Z,8.96
2018-12-02T06:28:55.017Z,8.97
2018-12-02T06:29:55.004Z,8.98
2018-12-02T06:30:54.992Z,9.01
2018-12-02T06:31:55.005Z,9.08
2018-12-02T06:32:54.974Z,9.03
2018-12-02T06:33:55.013Z,9.03
2018-12-02T06:34:54.950Z,9.04
2018-12-02T06:35:54.943Z,9.04
2018-12-02T06:36:54.969Z,8.94
2018-12-02T06:37:54.923Z,9.04
2018-12-02T06:38:54.906Z,9.10
2018-12-02T06:39:54.940Z,9.08
2018-12-02T06:40:54.919Z,9.01
2018-12-02T06:41:54.882Z,9.12
2018-12-02T06:42:54.896Z,9.13
2018-12-02T06:43:54.982Z,8.98
2018-12-02T06:44:54.844Z,9.01
2018-12-02T06:45:54.832Z,9.08
2018-12-02T06:46:54.867Z,9.15
2018-12-02T06:47:54.855Z,9.15
2018-12-02T06:48:54.805Z,9.17
2018-12-02T06:49:54.795Z,9.10
2018-12-02T06:50:54.780Z,9.06
2018-12-02T06:51:54.801Z,9.15
2018-12-02T06:52:54.782Z,9.12
2018-12-02T06:53:54.741Z,9.12
2018-12-02T06:54:54.776Z,9.13
2018-12-02T06:55:54.727Z,9.10
2018-12-02T06:56:54.710Z,9.08
2018-12-02T06:57:54.770Z,9.08
2018-12-02T06:58:54.694Z,9.17
2018-12-02T06:59:54.681Z,9.06
2018-12-02T07:00:54.669Z,9.15
2018-12-02T07:01:54.656Z,9.10
2018-12-02T07:02:54.747Z,9.17
2018-12-02T07:03:54.664Z,9.20
2018-12-02T07:04:54.637Z,9.16
2018-12-02T07:05:54.628Z,9.22
2018-12-02T07:06:54.609Z,9.16
2018-12-02T07:07:54.605Z,9.16
2018-12-02T07:08:54.612Z,9.19
2018-12-02T07:09:54.569Z,9.16
2018-12-02T07:10:54.564Z,9.19
2018-12-02T07:11:54.685Z,9.08
2018-12-02T07:12:54.542Z,9.19
2018-12-02T07:13:54.571Z,9.19
2018-12-02T07:14:54.519Z,9.22
2018-12-02T07:15:54.503Z,9.22
2018-12-02T07:16:54.520Z,9.19
2018-12-02T07:17:54.493Z,9.22
2018-12-02T07:18:54.474Z,9.24
2018-12-02T07:19:54.483Z,9.23
2018-12-02T07:20:54.543Z,9.24
2018-12-02T07:21:54.455Z,9.24
2018-12-02T07:22:54.431Z,9.22
2018-12-02T07:23:54.419Z,9.26
2018-12-02T07:24:54.436Z,9.30
2018-12-02T07:25:54.400Z,9.26
2018-12-02T07:26:54.431Z,9.31
2018-12-02T07:27:54.434Z,9.22
2018-12-02T07:28:54.363Z,9.31
2018-12-02T07:29:54.388Z,9.30
2018-12-02T07:30:54.339Z,9.26
2018-12-02T07:31:54.331Z,9.24
2018-12-02T07:32:54.324Z,9.37
2018-12-02T07:33:54.312Z,9.23
2018-12-02T07:34:54.339Z,9.31
2018-12-02T07:35:54.328Z,9.27
2018-12-02T07:36:54.276Z,9.34
2018-12-02T07:37:54.264Z,9.32
2018-12-02T07:38:54.255Z,9.35
2018-12-02T07:39:54.243Z,9.32
2018-12-02T07:40:54.315Z,9.32
2018-12-02T07:41:54.232Z,9.37
2018-12-02T07:42:54.209Z,9.34
2018-12-02T07:43:54.206Z,9.35
2018-12-02T07:44:54.193Z,9.38
2018-12-02T07:45:54.201Z,9.34
2018-12-02T07:46:54.211Z,9.38
2018-12-02T07:47:54.155Z,9.32
2018-12-02T07:48:54.145Z,9.40
2018-12-02T07:49:54.142Z,9.37
2018-12-02T07:50:54.185Z,9.38
2018-12-02T07:51:54.118Z,9.41
2018-12-02T07:52:54.100Z,9.40
2018-12-02T07:53:54.126Z,9.41
2018-12-02T07:54:54.079Z,9.44
2018-12-02T07:55:54.066Z,9.34
2018-12-02T07:56:54.086Z,9.38
2018-12-02T07:57:54.054Z,9.50
2018-12-02T07:58:54.037Z,9.42
2018-12-02T07:59:54.082Z,9.45
2018-12-02T08:00:54.015Z,9.49
2018-12-02T08:01:54.026Z,9.52
2018-12-02T08:02:54.034Z,9.45
2018-12-02T08:03:53.982Z,9.44
2018-12-02T08:04:53.988Z,9.45
2018-12-02T08:05:53.994Z,9.45
2018-12-02T08:06:53.972Z,9.56
2018-12-02T08:07:53.955Z,9.55
2018-12-02T08:08:53.926Z,9.59
2018-12-02T08:09:53.920Z,9.59
2018-12-02T08:10:53.907Z,9.56
2018-12-02T08:11:54.036Z,9.55
2018-12-02T08:12:53.889Z,9.62
2018-12-02T08:13:54.081Z,9.50
2018-12-02T08:14:53.934Z,9.67
2018-12-02T08:15:53.890Z,9.68
2018-12-02T08:16:54.014Z,9.67
2018-12-02T08:17:53.971Z,9.67
2018-12-02T08:18:53.830Z,9.63
2018-12-02T08:19:53.888Z,9.63
2018-12-02T08:20:53.810Z,9.63
2018-12-02T08:21:53.828Z,9.63
2018-12-02T08:22:53.814Z,9.70
2018-12-02T08:23:53.769Z,9.71
2018-12-02T08:24:53.752Z,9.74
2018-12-02T08:25:53.740Z,9.74
2018-12-02T08:26:53.744Z,9.75
2018-12-02T08:27:53.804Z,9.77
2018-12-02T08:28:53.710Z,9.74
2018-12-02T08:29:53.705Z,9.78
2018-12-02T08:30:53.728Z,9.73
2018-12-02T08:31:53.685Z,9.74
2018-12-02T08:32:53.695Z,9.74
2018-12-02T08:33:53.666Z,9.74
2018-12-02T08:34:53.653Z,9.74
2018-12-02T08:35:53.634Z,9.78
2018-12-02T08:36:53.645Z,9.80
2018-12-02T08:37:53.639Z,9.80
2018-12-02T08:38:53.604Z,9.74
2018-12-02T08:39:53.597Z,9.73
2018-12-02T08:40:53.585Z,9.74
2018-12-02T08:41:53.568Z,9.75
2018-12-02T08:42:53.818Z,9.86
2018-12-02T08:43:53.550Z,9.78
2018-12-02T08:44:53.545Z,9.83
2018-12-02T08:45:53.532Z,9.74
2018-12-02T08:46:53.524Z,9.78
2018-12-02T08:47:53.515Z,9.88
2018-12-02T08:48:53.546Z,9.78
2018-12-02T08:49:53.503Z,9.81
2018-12-02T08:50:53.479Z,9.85
2018-12-02T08:51:53.462Z,9.89
2018-12-02T08:52:53.451Z,9.93
2018-12-02T08:53:53.469Z,9.85
2018-12-02T08:54:53.440Z,9.80
2018-12-02T08:55:53.499Z,9.91
2018-12-02T08:56:53.430Z,9.85
2018-12-02T08:57:53.398Z,9.85
2018-12-02T08:58:53.423Z,9.91
2018-12-02T08:59:53.417Z,9.95
2018-12-02T09:00:53.388Z,9.99
2018-12-02T09:01:53.357Z,10.02
2018-12-02T09:02:53.345Z,10.02
2018-12-02T09:03:53.418Z,10.02
2018-12-02T09:04:53.357Z,9.93
2018-12-02T09:05:53.314Z,9.96
2018-12-02T09:06:53.304Z,9.99
2018-12-02T09:07:53.357Z,9.95
2018-12-02T09:08:53.279Z,10.01
2018-12-02T09:09:59.341Z,10.02
2018-12-02T09:10:54.291Z,10.01
2018-12-02T09:11:53.320Z,10.07
2018-12-02T09:12:53.242Z,10.04
2018-12-02T09:13:53.229Z,10.02
2018-12-02T09:14:53.256Z,9.99
2018-12-02T09:15:53.229Z,10.04
2018-12-02T09:16:53.193Z,10.07
2018-12-02T09:17:53.220Z,10.11
2018-12-02T09:18:53.195Z,10.06
2018-12-02T09:19:53.165Z,10.04
2018-12-02T09:20:53.179Z,10.11
2018-12-02T09:21:53.144Z,10.14
2018-12-02T09:22:53.142Z,10.04
2018-12-02T09:23:53.120Z,10.11
2018-12-02T09:24:53.113Z,10.10
2018-12-02T09:25:53.124Z,10.04
2018-12-02T09:26:53.156Z,10.09
2018-12-02T09:27:53.077Z,10.10
2018-12-02T09:28:53.065Z,10.09
2018-12-02T09:29:53.161Z,10.14
2018-12-02T09:30:53.279Z,10.13
2018-12-02T09:31:53.054Z,10.13
2018-12-02T09:32:53.027Z,10.11
2018-12-02T09:33:53.119Z,10.17
2018-12-02T09:34:53.004Z,10.18
2018-12-02T09:35:52.991Z,10.13
2018-12-02T09:36:57.838Z,10.17
2018-12-02T09:37:54.092Z,10.22
2018-12-02T09:38:52.995Z,10.31
2018-12-02T09:39:52.985Z,10.22
2018-12-02T09:40:53.040Z,10.26
2018-12-02T09:41:52.994Z,10.32
2018-12-02T09:42:52.962Z,10.39
2018-12-02T09:43:52.939Z,10.51
2018-12-02T09:44:53.008Z,10.58
2018-12-02T09:45:52.884Z,10.65
2018-12-02T09:46:52.910Z,10.58
2018-12-02T09:47:52.883Z,10.66
2018-12-02T09:48:52.849Z,10.66
2018-12-02T09:49:52.838Z,10.63
2018-12-02T09:50:52.911Z,10.75
2018-12-02T09:51:52.941Z,10.76
2018-12-02T09:52:52.804Z,10.78
2018-12-02T09:53:52.796Z,10.80
2018-12-02T09:54:52.783Z,10.86
2018-12-02T09:55:52.821Z,10.93
2018-12-02T09:56:52.782Z,10.91
2018-12-02T09:57:52.864Z,10.94
2018-12-02T09:58:52.738Z,11.01
2018-12-02T09:59:52.730Z,10.98
2018-12-02T10:00:52.737Z,11.02
2018-12-02T10:01:52.809Z,10.98
2018-12-02T10:02:53.772Z,10.95
2018-12-02T10:03:52.683Z,11.05
2018-12-02T10:04:52.675Z,11.01
2018-12-02T10:05:52.689Z,11.01
2018-12-02T10:06:52.665Z,11.03
2018-12-02T10:07:52.663Z,11.01
2018-12-02T10:08:52.640Z,11.05
2018-12-02T10:09:52.744Z,11.13
2018-12-02T10:10:52.675Z,11.09
2018-12-02T10:11:52.625Z,11.12
2018-12-02T10:12:52.611Z,11.12
2018-12-02T10:13:52.600Z,11.20
2018-12-02T10:14:52.574Z,11.16
2018-12-02T10:15:52.584Z,11.21
2018-12-02T10:16:52.570Z,11.13
2018-12-02T10:17:52.561Z,11.19
2018-12-02T10:18:52.569Z,11.20
2018-12-02T10:19:52.517Z,11.26
2018-12-02T10:20:52.497Z,11.24
2018-12-02T10:21:52.706Z,11.28
2018-12-02T10:22:52.509Z,11.19
2018-12-02T10:23:52.466Z,11.23
2018-12-02T10:24:52.488Z,11.26
2018-12-02T10:25:52.443Z,11.35
2018-12-02T10:26:52.433Z,11.31
2018-12-02T10:27:52.458Z,11.28
2018-12-02T10:28:52.453Z,11.41
2018-12-02T10:29:52.444Z,11.45
2018-12-02T10:30:52.404Z,11.48
2018-12-02T10:31:52.426Z,11.57
2018-12-02T10:32:52.371Z,11.57
2018-12-02T10:33:52.392Z,11.64
2018-12-02T10:34:52.365Z,11.69
2018-12-02T10:35:52.428Z,11.66
2018-12-02T10:36:52.366Z,11.67
2018-12-02T10:37:52.311Z,11.82
2018-12-02T10:38:52.311Z,11.79
2018-12-02T10:39:52.334Z,11.79
2018-12-02T10:40:52.325Z,11.90
2018-12-02T10:41:52.267Z,11.85
2018-12-02T10:42:52.276Z,11.87
2018-12-02T10:43:52.262Z,11.81
2018-12-02T10:44:52.262Z,11.77
2018-12-02T10:45:52.226Z,11.85
2018-12-02T10:46:52.222Z,11.78
2018-12-02T10:47:52.213Z,11.77
2018-12-02T10:48:52.204Z,11.79
2018-12-02T10:49:52.215Z,11.87
2018-12-02T10:50:52.299Z,11.84
2018-12-02T10:51:52.183Z,11.90
2018-12-02T10:52:52.282Z,11.81
2018-12-02T10:53:52.138Z,11.84
2018-12-02T10:54:52.198Z,11.85
2018-12-02T10:55:52.126Z,11.87
2018-12-02T10:56:52.135Z,12.04
2018-12-02T10:57:52.111Z,12.01
2018-12-02T10:58:52.351Z,11.97
2018-12-02T10:59:52.083Z,11.93
2018-12-02T11:00:52.092Z,12.01
2018-12-02T11:01:52.060Z,12.11
2018-12-02T11:02:52.098Z,12.12
2018-12-02T11:03:52.039Z,12.23
2018-12-02T11:04:52.034Z,12.22
2018-12-02T11:05:52.051Z,12.36
2018-12-02T11:06:52.075Z,12.43
2018-12-02T11:07:52.005Z,12.38
2018-12-02T11:08:52.012Z,12.48
2018-12-02T11:09:51.983Z,12.58
2018-12-02T11:10:51.994Z,12.69
2018-12-02T11:11:52.045Z,12.77
2018-12-02T11:12:51.949Z,12.74
2018-12-02T11:13:52.057Z,12.81
2018-12-02T11:14:52.026Z,12.81
2018-12-02T11:15:51.997Z,12.91
2018-12-02T11:16:51.892Z,12.92
2018-12-02T11:17:51.884Z,12.87
2018-12-02T11:18:51.876Z,12.96
2018-12-02T11:19:51.963Z,12.96
2018-12-02T11:20:51.889Z,12.85
2018-12-02T11:21:51.841Z,12.91
2018-12-02T11:22:51.883Z,12.99
2018-12-02T11:23:51.843Z,12.96
2018-12-02T11:24:51.814Z,12.91
2018-12-02T11:25:51.794Z,12.99
2018-12-02T11:26:51.816Z,12.95
2018-12-02T11:27:51.797Z,12.96
2018-12-02T11:28:51.769Z,13.01
2018-12-02T11:29:51.808Z,12.94
2018-12-02T11:30:51.735Z,12.96
2018-12-02T11:31:51.764Z,13.03
2018-12-02T11:32:51.728Z,13.12
2018-12-02T11:33:51.711Z,13.17
2018-12-02T11:34:51.697Z,13.13
2018-12-02T11:35:51.687Z,13.16
2018-12-02T11:36:51.732Z,13.25
2018-12-02T11:37:51.697Z,13.24
2018-12-02T11:38:51.686Z,13.25
2018-12-02T11:39:51.634Z,13.31
2018-12-02T11:40:51.624Z,13.29
2018-12-02T11:41:51.628Z,13.35
2018-12-02T11:42:51.707Z,13.28
2018-12-02T11:43:51.600Z,13.31
2018-12-02T11:44:51.618Z,13.38
2018-12-02T11:45:51.579Z,13.35
2018-12-02T11:46:51.664Z,13.41
2018-12-02T11:47:51.575Z,13.46
2018-12-02T11:48:51.569Z,13.48
2018-12-02T11:49:51.575Z,13.46
2018-12-02T11:50:51.528Z,13.50
2018-12-02T11:51:51.529Z,13.46
2018-12-02T11:52:51.620Z,13.61
2018-12-02T11:53:51.488Z,13.66
2018-12-02T11:54:51.488Z,13.65
2018-12-02T11:55:51.463Z,13.84
2018-12-02T11:56:51.462Z,13.86
2018-12-02T11:57:51.470Z,13.80
2018-12-02T11:58:51.571Z,13.75
2018-12-02T11:59:51.419Z,13.76
2018-12-02T12:00:51.417Z,13.68
2018-12-02T12:01:51.427Z,13.63
2018-12-02T12:02:51.400Z,13.66
2018-12-02T12:03:51.453Z,13.73
2018-12-02T12:04:51.380Z,13.61
2018-12-02T12:05:51.361Z,13.59
2018-12-02T12:06:51.344Z,13.50
2018-12-02T12:07:51.334Z,13.47
2018-12-02T12:08:51.351Z,13.51
2018-12-02T12:09:51.313Z,13.57
2018-12-02T12:10:51.309Z,13.68
2018-12-02T12:11:51.410Z,13.65
2018-12-02T12:12:51.284Z,13.80
2018-12-02T12:13:51.324Z,13.81
2018-12-02T12:14:51.260Z,13.76
2018-12-02T12:15:51.327Z,13.76
2018-12-02T12:16:51.237Z,13.71
2018-12-02T12:17:51.252Z,13.73
2018-12-02T12:18:51.243Z,13.79
2018-12-02T12:19:51.219Z,13.76
2018-12-02T12:20:51.195Z,13.83
2018-12-02T12:21:51.289Z,13.90
2018-12-02T12:22:51.173Z,13.93
2018-12-02T12:23:51.194Z,13.90
2018-12-02T12:24:51.175Z,13.96
2018-12-02T12:25:51.148Z,13.90
2018-12-02T12:26:51.132Z,13.91
2018-12-02T12:27:51.127Z,13.87
2018-12-02T12:28:51.219Z,13.86
2018-12-02T12:29:51.098Z,13.90
2018-12-02T12:30:51.092Z,14.01
2018-12-02T12:31:51.078Z,13.96
2018-12-02T12:32:51.082Z,13.93
2018-12-02T12:33:51.081Z,14.09
2018-12-02T12:34:51.130Z,14.06
2018-12-02T12:35:51.049Z,14.11
2018-12-02T12:36:51.032Z,14.19
2018-12-02T12:37:51.067Z,14.36
2018-12-02T12:38:51.080Z,14.45
2018-12-02T12:39:50.997Z,14.44
2018-12-02T12:40:50.989Z,14.38
2018-12-02T12:41:50.984Z,14.36
2018-12-02T12:42:50.981Z,14.34
2018-12-02T12:43:50.970Z,14.42
2018-12-02T12:44:50.984Z,14.36
2018-12-02T12:45:50.947Z,14.36
2018-12-02T12:46:50.914Z,14.41
2018-12-02T12:47:50.914Z,14.45
2018-12-02T12:48:50.898Z,14.42
2018-12-02T12:49:51.004Z,14.46
2018-12-02T12:50:50.908Z,14.39
2018-12-02T12:51:50.859Z,14.42
2018-12-02T12:52:50.876Z,14.34
2018-12-02T12:53:50.837Z,14.41
2018-12-02T12:54:50.850Z,14.31
2018-12-02T12:55:51.245Z,14.24
2018-12-02T12:56:50.804Z,14.24
2018-12-02T12:57:50.803Z,14.30
2018-12-02T12:58:50.782Z,14.31
2018-12-02T12:59:50.800Z,14.34
2018-12-02T13:00:50.771Z,14.34
2018-12-02T13:01:50.768Z,14.35
2018-12-02T13:02:50.740Z,14.34
2018-12-02T13:03:50.731Z,14.35
2018-12-02T13:04:50.747Z,14.29
2018-12-02T13:05:50.721Z,14.29
2018-12-02T13:06:50.702Z,14.26
2018-12-02T13:07:50.736Z,14.24
2018-12-02T13:08:50.699Z,14.11
2018-12-02T13:09:50.699Z,14.17
2018-12-02T13:10:50.712Z,14.16